Latest Weather Observations for Bankstown

IDN60801

Issued at 10:32 pm EST Sunday 5 July 2015 (issued every 30 minutes, with the page automatically refreshed every 10 minutes)

About weather observations | Map of weather stations | Latest weather observations for NSW | Other Formats
Station Details ID: 066137 Name: BANKSTOWN AIRPORT AWS Lat: -33.92 Lon: 150.99 Height: 6.5 m
Data from the previous 72 hours. | See also: Recent months at Bankstown
Date/Time
EST
Temp
°C
App
Temp
°C
Dew
Point
Rel
Hum
%
Delta-T
°C
Wind Press
QNH
hPa
Press
MSL
hPa
Rain
since 9 am
mm
Dir
 
Spd
km/h
Gust
km/h
Spd
kts
Gust
kts
05/10:30pm 6.0 3.3 3.5 84 1.0 SE 7 9 4 5 1018.2 1018.2 0.0
05/10:00pm 5.5 4.0 3.0 84 1.0 CALM 0 0 0 0 1018.2 1018.2 0.0
05/09:30pm 5.8 4.3 3.0 82 1.2 CALM 0 0 0 0 1018.2 1018.2 0.0
05/09:00pm 6.0 4.5 3.2 82 1.2 CALM 0 0 0 0 1018.3 1018.3 0.0
05/08:30pm 6.1 4.5 2.4 77 1.5 CALM 0 0 0 0 1018.3 1018.3 0.0
05/08:00pm 7.4 6.0 3.5 76 1.7 CALM 0 0 0 0 1018.4 1018.4 0.0
05/07:30pm 7.2 5.7 3.1 75 1.7 CALM 0 0 0 0 1018.5 1018.5 0.0
05/07:00pm 8.6 7.2 3.6 71 2.1 CALM 0 4 0 2 1018.6 1018.6 0.0
05/06:30pm 8.7 7.2 3.1 68 2.4 CALM 0 0 0 0 1018.4 1018.4 0.0
05/06:00pm 9.8 8.2 2.2 59 3.2 CALM 0 0 0 0 1018.1 1018.1 0.0
05/05:30pm 11.7 10.1 2.5 53 4.0 CALM 0 0 0 0 1017.9 1017.9 0.0
05/05:00pm 13.1 10.3 1.8 46 4.9 NNW 6 7 3 4 1018.1 1018.1 0.0
05/04:30pm 14.7 11.1 0.5 38 6.0 NNW 9 9 5 5 1018.0 1018.0 0.0
05/04:00pm 15.9 12.5 -0.8 32 7.0 NW 7 9 4 5 1017.9 1017.9 0.0
05/03:30pm 17.2 14.4 -0.5 30 7.5 WSW 4 9 2 5 1017.9 1017.9 0.0
05/03:00pm 17.2 13.7 -1.4 28 7.8 NW 7 11 4 6 1018.0 1018.0 0.0
05/02:30pm 17.0 13.6 -2.1 27 7.9 NNW 6 9 3 5 1018.0 1018.0 0.0
05/02:00pm 16.7 13.5 -0.5 31 7.3 WNW 6 9 3 5 1018.2 1018.2 0.0
05/01:30pm 16.7 13.6 0.4 33 7.0 NW 6 9 3 5 1018.3 1018.3 0.0
05/01:00pm 15.4 12.0 -0.8 33 6.7 NW 7 11 4 6 1018.8 1018.8 0.0
05/12:30pm 14.7 11.4 -0.2 36 6.2 NW 7 13 4 7 1019.4 1019.4 0.0
05/12:00pm 14.1 10.5 0.7 40 5.7 NNW 9 13 5 7 1020.0 1020.0 0.0
05/11:30am 12.9 9.3 0.3 42 5.2 NW 9 13 5 7 1020.8 1020.8 0.0
05/11:00am 11.9 8.4 1.0 47 4.5 WNW 9 13 5 7 1021.4 1021.4 0.0
05/10:30am 10.7 7.2 1.0 51 4.0 WSW 9 13 5 7 1021.9 1021.9 0.0
05/10:00am 9.7 5.8 1.4 56 3.4 W 11 13 6 7 1022.3 1022.3 0.0
05/09:30am 8.3 4.9 1.7 63 2.7 WNW 9 13 5 7 1022.4 1022.4 0.0
05/09:00am 7.1 3.7 2.0 70 2.1 NW 9 11 5 6 1022.4 1022.4 0.0
05/08:30am 5.9 2.6 2.5 79 1.4 NW 9 11 5 6 1022.5 1022.5 0.0
05/08:00am 4.1 1.3 2.1 87 0.8 NW 6 7 3 4 1022.5 1022.5 0.0
05/07:30am 2.9 -0.1 1.0 87 0.7 NW 6 7 3 4 1022.4 1022.4 0.0
05/07:00am 2.5 -0.5 0.6 87 0.7 NW 6 9 3 5 1022.1 1022.1 0.0
05/06:30am 2.8 -0.2 0.7 86 0.8 NW 6 7 3 4 1021.8 1021.8 0.0
05/06:00am 3.1 -0.1 1.0 86 0.8 NW 7 7 4 4 1021.7 1021.7 0.0
05/05:30am 2.8 -0.8 0.5 85 0.9 NNW 9 11 5 6 1021.5 1021.5 0.0
05/05:00am 3.6 -0.3 1.2 84 0.9 NNW 11 13 6 7 1021.5 1021.5 0.0
05/04:30am 3.4 -1.0 0.6 82 1.1 NNW 13 13 7 7 1021.5 1021.5 0.0
05/04:00am 4.2 -0.5 1.1 80 1.2 NNW 15 17 8 9 1021.5 1021.5 0.0
05/03:30am 4.2 0.6 0.9 79 1.3 NNW 9 11 5 6 1021.6 1021.6 0.0
05/03:00am 4.6 0.7 1.1 78 1.4 NNW 11 13 6 7 1021.6 1021.6 0.0
05/02:30am 4.2 1.0 0.7 78 1.3 NNW 7 11 4 6 1021.8 1021.8 0.0
05/02:00am 4.6 1.0 0.6 75 1.5 NNW 9 13 5 7 1021.9 1021.9 0.0
05/01:30am 5.4 1.9 1.0 73 1.7 NNW 9 11 5 6 1022.1 1022.1 0.0
05/01:00am 5.2 1.2 0.6 72 1.8 NNW 11 13 6 7 1021.9 1021.9 0.0
05/12:30am 6.0 2.5 1.2 71 1.9 NW 9 11 5 6 1021.8 1021.8 0.0
05/12:00am 6.2 2.7 1.1 70 2.0 NW 9 9 5 5 1022.0 1022.0 0.0
 
Date/Time
EST
Temp
°C
App
Temp
°C
Dew
Point
Rel
Hum
%
Delta-T
°C
Wind Press
QNH
hPa
Press
MSL
hPa
Rain
since 9 am
mm
Dir
 
Spd
km/h
Gust
km/h
Spd
kts
Gust
kts
04/11:30pm 6.3 2.8 1.4 71 2.0 NNW 9 13 5 7 1022.1 1022.1 0.0
04/11:00pm 6.7 3.2 1.0 67 2.3 W 9 9 5 5 1022.2 1022.2 0.0
04/10:30pm 6.7 3.7 1.0 67 2.3 WSW 6 7 3 4 1022.0 1022.0 0.0
04/10:00pm 7.1 4.0 1.4 67 2.3 WSW 7 9 4 5 1022.1 1022.1 0.0
04/09:30pm 7.0 4.1 1.3 67 2.3 WSW 6 7 3 4 1022.3 1022.3 0.0
04/09:00pm 6.9 3.4 1.0 66 2.3 W 9 11 5 6 1022.5 1022.5 0.0
04/08:30pm 6.4 4.5 2.9 78 1.5 WNW 2 7 1 4 1022.5 1022.5 0.0
04/08:00pm 6.1 4.1 2.4 77 1.5 WNW 2 7 1 4 1022.4 1022.4 0.0
04/07:30pm 7.1 5.4 2.0 70 2.1 CALM 0 0 0 0 1022.2 1022.2 0.0
04/07:00pm 8.1 6.3 3.2 71 2.1 NE 2 7 1 4 1021.9 1021.9 0.0
04/06:30pm 7.5 5.8 2.0 68 2.3 CALM 0 0 0 0 1021.6 1021.6 0.0
04/06:00pm 8.6 6.8 1.1 59 3.0 CALM 0 6 0 3 1021.3 1021.3 0.0
04/05:30pm 11.3 8.1 0.7 48 4.4 E 7 9 4 5 1021.0 1021.0 0.0
04/05:00pm 12.5 8.9 0.6 44 4.9 ESE 9 13 5 7 1020.8 1020.8 0.0
04/04:30pm 14.8 12.6 -1.7 32 6.7 CALM 0 0 0 0 1020.6 1020.6 0.0
04/04:00pm 15.8 13.6 -1.7 30 7.1 CALM 0 0 0 0 1020.4 1020.4 0.0
04/03:30pm 15.6 11.9 -3.3 27 7.5 SW 7 11 4 6 1020.2 1020.2 0.0
04/03:00pm 15.1 11.9 -3.3 28 7.2 S 4 7 2 4 1020.2 1020.2 0.0
04/02:30pm 15.1 10.9 -3.7 27 7.3 S 9 13 5 7 1020.1 1020.1 0.0
04/02:00pm 15.2 11.5 -2.7 29 7.1 W 7 11 4 6 1020.0 1020.0 0.0
04/01:30pm 14.4 10.9 -1.6 33 6.5 SSW 7 11 4 6 1020.0 1020.0 0.0
04/01:00pm 13.8 10.2 -1.8 34 6.2 W 7 13 4 7 1020.4 1020.4 0.0
04/12:30pm 12.7 9.2 -1.2 38 5.6 W 7 15 4 8 1021.0 1021.0 0.0
04/12:00pm 12.1 9.1 0.8 46 4.7 W 6 13 3 7 1021.4 1021.4 0.0
04/11:30am 10.8 7.2 0.5 49 4.2 NW 9 13 5 7 1021.9 1021.9 0.0
04/11:00am 9.6 6.5 1.5 57 3.3 WNW 7 13 4 7 1022.3 1022.3 0.0
04/10:30am 8.4 5.4 2.2 65 2.6 NW 7 11 4 6 1022.7 1022.7 0.0
04/10:00am 7.4 4.9 3.8 78 1.5 NW 6 7 3 4 1023.2 1023.2 0.0
04/09:30am 5.9 4.1 3.2 83 1.1 WNW 2 6 1 3 1023.3 1023.3 0.0
04/09:00am 5.0 2.4 3.2 88 0.7 N 6 7 3 4 1022.9 1022.9 0.0
04/08:30am 3.1 1.3 1.5 89 0.6 CALM 0 0 0 0 1023.2 1023.2 0.0
04/08:00am 2.4 0.5 0.8 89 0.6 CALM 0 0 0 0 1023.3 1023.3 0.0
04/07:30am 1.7 -0.3 0.1 89 0.6 CALM 0 0 0 0 1023.2 1023.2 0.0
04/07:00am 0.8 -1.3 -1.0 88 0.6 CALM 0 0 0 0 1022.9 1022.9 0.0
04/06:30am 2.4 -0.6 0.6 88 0.7 NNW 6 6 3 3 1022.7 1022.7 0.0
04/06:00am 2.6 -0.6 0.8 88 0.7 N 7 9 4 5 1022.6 1022.6 0.0
04/05:30am 1.8 -1.5 -0.1 87 0.7 N 7 7 4 4 1023.0 1023.0 0.0
04/05:00am 2.6 -0.6 0.7 87 0.7 N 7 9 4 5 1022.7 1022.7 0.0
04/04:30am 3.5 1.8 1.7 88 0.7 CALM 0 0 0 0 1022.8 1022.8 0.0
04/04:00am 3.4 0.5 1.6 88 0.7 NNW 6 7 3 4 1023.1 1023.1 0.0
04/03:30am 3.8 0.8 2.0 88 0.7 NNW 7 9 4 5 1023.5 1023.5 0.0
04/03:00am 3.6 0.5 1.6 87 0.8 NNW 7 7 4 4 1023.6 1023.6 0.0
04/02:30am 4.3 2.7 2.5 88 0.7 CALM 0 0 0 0 1023.9 1023.9 0.0
04/02:00am 4.1 2.1 2.3 88 0.7 NNW 2 6 1 3 1024.1 1024.1 0.0
04/01:30am 3.8 1.7 1.8 87 0.8 NNW 2 7 1 4 1024.2 1024.2 0.0
04/01:00am 4.3 1.3 2.3 87 0.8 NNW 7 9 4 5 1024.3 1024.3 0.0
04/12:30am 4.6 3.0 2.6 87 0.8 CALM 0 0 0 0 1024.7 1024.7 0.0
04/12:00am 4.5 2.9 2.5 87 0.8 CALM 0 6 0 3 1025.1 1025.1 0.0
 
Date/Time
EST
Temp
°C
App
Temp
°C
Dew
Point
Rel
Hum
%
Delta-T
°C
Wind Press
QNH
hPa
Press
MSL
hPa
Rain
since 9 am
mm
Dir
 
Spd
km/h
Gust
km/h
Spd
kts
Gust
kts
03/11:30pm 4.5 2.9 2.5 87 0.8 CALM 0 0 0 0 1025.5 1025.5 0.0
03/11:17pm 4.5 2.9 2.5 87 0.8 CALM 0 0 0 0 1025.5 1025.5 0.0
03/11:06pm 4.5 2.9 2.4 86 0.8 CALM 0 0 0 0 1025.5 1025.5 0.0
03/11:00pm 4.6 3.0 2.5 86 0.8 CALM 0 0 0 0 1025.6 1025.6 0.0
03/10:30pm 5.4 4.0 3.4 87 0.8 CALM 0 0 0 0 1025.7 1025.7 0.0
03/10:00pm 4.9 3.4 2.8 86 0.8 CALM 0 0 0 0 1025.8 1025.8 0.0
03/09:30pm 5.2 3.7 3.1 86 0.9 CALM 0 0 0 0 1025.8 1025.8 0.0
03/09:00pm 5.5 4.0 3.0 84 1.0 CALM 0 0 0 0 1025.8 1025.8 0.0
03/08:30pm 5.9 4.4 3.1 82 1.2 CALM 0 0 0 0 1025.7 1025.7 0.0
03/08:00pm 6.4 4.9 3.2 80 1.3 CALM 0 0 0 0 1025.7 1025.7 0.0
03/07:30pm 7.2 5.8 3.6 78 1.5 CALM 0 0 0 0 1025.7 1025.7 0.0
03/07:00pm 7.5 6.1 3.6 76 1.7 CALM 0 0 0 0 1025.7 1025.7 0.0
03/06:30pm 8.4 7.0 3.7 72 2.0 CALM 0 0 0 0 1025.5 1025.5 0.0
03/06:00pm 9.0 7.4 2.6 64 2.7 CALM 0 0 0 0 1025.3 1025.3 0.0
03/05:30pm 10.3 7.5 2.2 57 3.4 ESE 6 7 3 4 1025.1 1025.1 0.0
03/05:00pm 12.0 8.4 3.0 54 3.9 ESE 11 17 6 9 1024.9 1024.9 0.0
03/04:30pm 13.0 8.2 2.5 49 4.6 ESE 17 20 9 11 1024.8 1024.8 0.0
03/04:00pm 13.8 8.7 3.0 48 4.8 SE 19 22 10 12 1024.9 1024.9 0.0
03/03:30pm 14.2 10.9 2.5 45 5.2 E 9 13 5 7 1024.7 1024.7 0.0
03/03:00pm 14.0 10.2 1.6 43 5.3 ESE 11 15 6 8 1024.5 1024.5 0.0
03/02:30pm 14.0 10.8 1.0 41 5.6 S 7 11 4 6 1024.6 1024.6 0.0
03/02:00pm 14.7 10.9 1.6 41 5.7 S 11 17 6 9 1024.6 1024.6 0.0
03/01:30pm 14.4 10.1 1.0 40 5.7 SSE 13 19 7 10 1024.9 1024.9 0.0
03/01:00pm 15.0 10.3 0.8 38 6.1 ESE 15 19 8 10 1025.3 1025.3 0.0
03/12:30pm 14.7 11.3 1.9 42 5.6 SW 9 15 5 8 1025.7 1025.7 0.0
03/12:00pm 14.0 10.2 1.6 43 5.3 SW 11 20 6 11 1026.1 1026.1 0.0
03/11:30am 13.1 8.9 1.5 45 5.0 WSW 13 17 7 9 1026.6 1026.6 0.0
03/11:00am 12.4 7.7 0.8 45 4.8 SW 15 20 8 11 1026.8 1026.8 0.0
03/10:30am 11.7 7.0 0.8 47 4.5 SW 15 24 8 13 1027.2 1027.2 0.0
03/10:00am 10.3 5.1 -0.2 48 4.2 WSW 17 22 9 12 1027.3 1027.3 0.0
03/09:30am 9.0 4.4 -1.1 49 3.9 SW 13 19 7 10 1027.2 1027.2 0.0
03/09:00am 7.6 3.0 -1.1 54 3.3 SW 13 19 7 10 1027.0 1027.0 0.0
03/08:30am 6.4 2.5 -1.5 57 2.9 SW 9 15 5 8 1026.8 1026.8 0.0
03/08:00am 5.4 1.5 -1.3 62 2.5 SW 9 11 5 6 1026.6 1026.6 0.0
03/07:30am 4.3 0.7 -1.9 64 2.2 WSW 7 9 4 5 1026.6 1026.6 0.0
03/07:00am 4.2 0.8 -2.0 64 2.2 WSW 6 7 3 4 1026.3 1026.3 0.0
03/06:30am 4.9 0.9 -2.0 61 2.5 SW 9 19 5 10 1025.9 1025.9 0.0
03/06:00am 4.6 0.3 -2.0 62 2.4 WSW 11 17 6 9 1025.4 1025.4 0.0
03/05:30am 4.4 0.8 -1.8 64 2.2 WSW 7 13 4 7 1025.2 1025.2 0.0
03/05:00am 4.6 1.0 -2.3 61 2.4 SW 7 11 4 6 1025.1 1025.1 0.0
03/04:30am 5.0 1.0 -2.1 60 2.6 SW 9 13 5 7 1025.1 1025.1 0.0
03/04:00am 5.2 1.2 -1.9 60 2.6 SW 9 11 5 6 1024.6 1024.6 0.0
03/03:30am 5.2 1.8 -2.1 59 2.6 WSW 6 11 3 6 1024.5 1024.5 0.0
03/03:00am 5.4 2.0 -1.7 60 2.6 WSW 6 7 3 4 1024.3 1024.3 0.0
03/02:30am 5.2 1.3 -1.5 62 2.5 SSW 9 13 5 7 1024.2 1024.2 0.0
03/02:00am 5.4 2.1 -1.3 62 2.5 SSW 6 9 3 5 1024.3 1024.3 0.0
03/01:30am 6.1 2.6 -1.1 60 2.7 SW 7 9 4 5 1024.3 1024.3 0.0
03/01:00am 6.1 2.3 -0.6 62 2.5 WSW 9 11 5 6 1024.3 1024.3 0.0
03/12:30am 6.4 3.0 -0.6 61 2.7 SW 7 11 4 6 1024.3 1024.3 0.0
03/12:00am 7.2 3.4 -0.5 58 2.9 SW 9 13 5 7 1024.4 1024.4 0.0
 
Date/Time
EST
Temp
°C
App
Temp
°C
Dew
Point
Rel
Hum
%
Delta-T
°C
Wind Press
QNH
hPa
Press
MSL
hPa
Rain
since 9 am
mm
Dir
 
Spd
km/h
Gust
km/h
Spd
kts
Gust
kts
02/11:30pm 7.7 4.3 -0.3 57 3.1 SW 7 11 4 6 1024.6 1024.6 0.0
02/11:00pm 8.1 4.1 0.3 58 3.1 SW 11 15 6 8 1024.5 1024.5 0.0

Other Formats:

Comma delimited format used in spreadsheet applications
http://www.bom.gov.au/fwo/IDN60801/IDN60801.94765.axf

JavaScript Object Notation format (JSON) in row-major order
http://www.bom.gov.au/fwo/IDN60801/IDN60801.94765.json